createdAt,value
2022-10-05T00:01:28.038Z,2.40
2022-10-05T00:04:02.957Z,2.33
2022-10-05T00:06:30.500Z,2.20
2022-10-05T00:08:57.623Z,2.17
2022-10-05T00:11:24.655Z,2.10
2022-10-05T00:13:52.713Z,2.33
2022-10-05T00:16:22.696Z,2.20
2022-10-05T00:18:51.148Z,2.10
2022-10-05T00:21:20.159Z,2.20
2022-10-05T00:23:47.204Z,2.20
2022-10-05T00:26:16.999Z,2.13
2022-10-05T00:28:44.062Z,2.00
2022-10-05T00:31:15.357Z,1.97
2022-10-05T00:33:42.440Z,1.97
2022-10-05T00:36:09.603Z,2.13
2022-10-05T00:38:36.685Z,2.20
2022-10-05T00:41:22.796Z,2.20
2022-10-05T00:44:00.530Z,1.97
2022-10-05T00:46:36.855Z,1.70
2022-10-05T00:49:21.270Z,1.80
2022-10-05T00:51:56.852Z,1.70
2022-10-05T00:54:29.851Z,2.10
2022-10-05T00:57:03.444Z,1.83
2022-10-05T00:59:39.988Z,1.97
2022-10-05T01:02:09.881Z,1.90
2022-10-05T01:04:50.769Z,1.60
2022-10-05T01:07:17.812Z,1.70
2022-10-05T01:09:44.819Z,1.80
2022-10-05T01:12:30.404Z,2.00
2022-10-05T01:15:16.197Z,1.87
2022-10-05T01:17:49.358Z,1.67
2022-10-05T01:20:22.674Z,1.73
2022-10-05T01:23:08.578Z,1.80
2022-10-05T01:25:54.275Z,1.47
2022-10-05T01:28:34.029Z,1.80
2022-10-05T01:31:11.233Z,1.80
2022-10-05T01:33:44.960Z,1.63
2022-10-05T01:36:30.868Z,1.60
2022-10-05T01:38:57.863Z,1.77
2022-10-05T01:41:27.663Z,1.77
2022-10-05T01:44:23.775Z,1.50
2022-10-05T01:47:09.341Z,1.60
2022-10-05T01:49:38.609Z,1.53
2022-10-05T01:52:14.289Z,1.63
2022-10-05T01:55:00.113Z,1.60
2022-10-05T01:57:36.287Z,1.63
2022-10-05T02:00:07.517Z,1.90
2022-10-05T02:02:44.471Z,1.97
2022-10-05T02:05:11.519Z,1.73
2022-10-05T02:07:48.708Z,1.83
2022-10-05T02:10:22.047Z,1.70
2022-10-05T02:12:50.585Z,1.93
2022-10-05T02:15:20.042Z,1.93
2022-10-05T02:17:51.145Z,1.83
2022-10-05T02:20:23.911Z,1.83
2022-10-05T02:22:52.709Z,1.87
2022-10-05T02:25:21.879Z,2.00
2022-10-05T02:28:15.168Z,1.97
2022-10-05T02:30:45.523Z,2.00
2022-10-05T02:33:18.598Z,2.00
2022-10-05T02:35:45.609Z,2.00
2022-10-05T02:38:19.286Z,2.20
2022-10-05T02:41:09.573Z,2.27
2022-10-05T02:43:45.477Z,2.13
2022-10-05T02:46:19.966Z,1.93
2022-10-05T02:48:55.856Z,2.30
2022-10-05T02:51:25.151Z,1.80
2022-10-05T02:53:59.865Z,2.03
2022-10-05T02:56:42.269Z,2.20
2022-10-05T02:59:17.791Z,1.80
2022-10-05T03:01:57.396Z,1.80
2022-10-05T03:04:42.043Z,1.70
2022-10-05T03:07:22.127Z,2.00
2022-10-05T03:10:00.781Z,1.57
2022-10-05T03:12:48.781Z,1.50
2022-10-05T03:15:18.898Z,2.30
2022-10-05T03:18:04.548Z,1.80
2022-10-05T03:20:43.515Z,1.90
2022-10-05T03:23:17.699Z,2.10
2022-10-05T03:25:50.799Z,1.80
2022-10-05T03:28:26.619Z,2.00
2022-10-05T03:31:00.018Z,1.93
2022-10-05T03:33:36.072Z,2.00
2022-10-05T03:36:03.110Z,2.20
2022-10-05T03:38:33.216Z,2.20
2022-10-05T03:41:05.944Z,1.90
2022-10-05T03:43:57.742Z,2.73
2022-10-05T03:46:43.804Z,2.00
2022-10-05T03:49:29.577Z,2.27
2022-10-05T03:52:00.731Z,2.00
2022-10-05T03:54:33.499Z,2.10
2022-10-05T03:57:19.475Z,2.33
2022-10-05T03:59:52.643Z,2.10
2022-10-05T04:02:25.475Z,1.97
2022-10-05T04:04:59.979Z,2.27
2022-10-05T04:07:29.983Z,2.33
2022-10-05T04:09:58.322Z,2.20
2022-10-05T04:12:31.015Z,1.90
2022-10-05T04:15:00.078Z,1.90
2022-10-05T04:17:34.804Z,2.10
2022-10-05T04:20:06.450Z,1.97
2022-10-05T04:22:40.066Z,1.90
2022-10-05T04:25:18.364Z,1.90
2022-10-05T04:27:52.799Z,1.67
2022-10-05T04:30:22.198Z,1.80
2022-10-05T04:32:52.924Z,1.90
2022-10-05T04:35:20.102Z,1.73
2022-10-05T04:37:53.331Z,2.20
2022-10-05T04:40:20.356Z,2.00
2022-10-05T04:42:55.314Z,1.90
2022-10-05T04:45:22.330Z,2.33
2022-10-05T04:47:55.381Z,2.53
2022-10-05T04:50:35.952Z,2.67
2022-10-05T04:53:10.353Z,2.37
2022-10-05T04:55:49.605Z,2.13
2022-10-05T04:58:42.454Z,2.03
2022-10-05T05:01:22.131Z,2.30
2022-10-05T05:03:58.321Z,2.10
2022-10-05T05:06:33.270Z,2.00
2022-10-05T05:09:03.117Z,2.50
2022-10-05T05:11:33.165Z,2.27
2022-10-05T05:14:06.095Z,2.50
2022-10-05T05:16:43.327Z,2.40
2022-10-05T05:19:35.086Z,2.50
2022-10-05T05:22:04.884Z,2.33
2022-10-05T05:24:34.663Z,2.53
2022-10-05T05:27:24.573Z,2.70
2022-10-05T05:30:10.394Z,2.63
2022-10-05T05:32:40.405Z,3.30
2022-10-05T05:35:33.513Z,2.50
2022-10-05T05:38:00.534Z,3.07
2022-10-05T05:40:53.933Z,2.80
2022-10-05T05:43:24.203Z,3.27
2022-10-05T05:45:57.935Z,3.00
2022-10-05T05:48:29.328Z,2.20
2022-10-05T05:51:00.633Z,2.73
2022-10-05T05:53:30.442Z,2.40
2022-10-05T05:56:05.078Z,2.27
2022-10-05T05:58:34.173Z,2.43
2022-10-05T06:01:04.307Z,2.50
2022-10-05T06:03:36.572Z,2.80
2022-10-05T06:06:19.762Z,2.73
2022-10-05T06:08:58.526Z,2.63
2022-10-05T06:11:48.648Z,2.87
2022-10-05T06:14:19.234Z,3.37
2022-10-05T06:16:50.914Z,2.70
2022-10-05T06:19:20.026Z,2.63
2022-10-05T06:21:55.841Z,2.60
2022-10-05T06:24:45.938Z,2.67
2022-10-05T06:27:28.026Z,2.80
2022-10-05T06:30:05.228Z,3.00
2022-10-05T06:32:34.881Z,2.80
2022-10-05T06:35:07.334Z,3.10
2022-10-05T06:37:43.316Z,3.30
2022-10-05T06:40:16.217Z,3.17
2022-10-05T06:42:55.572Z,3.13
2022-10-05T06:45:25.707Z,3.40
2022-10-05T06:48:04.255Z,3.80
2022-10-05T06:50:41.539Z,3.53
2022-10-05T06:53:17.491Z,4.20
2022-10-05T06:56:03.135Z,4.20
2022-10-05T06:58:51.701Z,3.70
2022-10-05T07:01:37.789Z,3.20
2022-10-05T07:04:14.074Z,3.90
2022-10-05T07:06:43.328Z,4.00
2022-10-05T07:09:19.226Z,3.73
2022-10-05T07:11:57.317Z,3.43
2022-10-05T07:14:41.730Z,3.40
2022-10-05T07:17:22.395Z,3.10
2022-10-05T07:19:55.772Z,3.60
2022-10-05T07:22:22.760Z,3.10
2022-10-05T07:25:05.668Z,3.23
2022-10-05T07:27:34.692Z,3.50
2022-10-05T07:30:11.429Z,3.43
2022-10-05T07:32:56.969Z,3.17
2022-10-05T07:35:48.861Z,3.10
2022-10-05T07:38:24.789Z,3.03
2022-10-05T07:41:02.602Z,3.03
2022-10-05T07:43:51.422Z,3.10
2022-10-05T07:46:23.023Z,3.13
2022-10-05T07:49:00.005Z,3.10
2022-10-05T07:51:34.568Z,3.40
2022-10-05T07:54:10.796Z,2.90
2022-10-05T07:56:40.839Z,3.20
2022-10-05T07:59:11.317Z,3.00
2022-10-05T08:01:41.970Z,2.63
2022-10-05T08:04:12.101Z,2.87
2022-10-05T08:06:49.041Z,2.90
2022-10-05T08:09:35.242Z,2.90
2022-10-05T08:12:35.673Z,3.07
2022-10-05T08:15:21.096Z,2.77
2022-10-05T08:17:55.728Z,2.77
2022-10-05T08:20:28.675Z,2.80
2022-10-05T08:23:14.276Z,2.80
2022-10-05T08:25:55.637Z,2.83
2022-10-05T08:28:34.271Z,2.60
2022-10-05T08:31:04.570Z,2.90
2022-10-05T08:33:36.616Z,2.67
2022-10-05T08:36:09.355Z,2.57
2022-10-05T08:38:36.888Z,2.70
2022-10-05T08:41:16.650Z,2.77
2022-10-05T08:43:46.455Z,2.67
2022-10-05T08:46:22.574Z,2.70
2022-10-05T08:49:04.702Z,2.90
2022-10-05T08:51:37.490Z,2.90
2022-10-05T08:54:19.453Z,2.87
2022-10-05T08:57:12.500Z,2.70
2022-10-05T08:59:58.277Z,2.53
2022-10-05T09:02:51.359Z,2.87
2022-10-05T09:05:21.243Z,2.67
2022-10-05T09:08:00.308Z,2.50
2022-10-05T09:10:33.277Z,2.50
2022-10-05T09:13:15.348Z,2.30
2022-10-05T09:15:48.266Z,2.67
2022-10-05T09:18:35.719Z,2.27
2022-10-05T09:21:04.643Z,2.60
2022-10-05T09:23:42.772Z,2.40
2022-10-05T09:26:09.819Z,2.50
2022-10-05T09:28:55.726Z,2.70
2022-10-05T09:31:33.804Z,2.20
2022-10-05T09:34:24.405Z,2.00
2022-10-05T09:37:00.203Z,2.10
2022-10-05T09:39:36.068Z,2.70
2022-10-05T09:42:35.393Z,2.40
2022-10-05T09:45:24.059Z,1.90
2022-10-05T09:47:51.067Z,2.33
2022-10-05T09:50:50.811Z,2.10
2022-10-05T09:53:40.580Z,2.03
2022-10-05T09:56:13.378Z,2.20
2022-10-05T09:58:50.129Z,2.33
2022-10-05T10:01:44.891Z,2.30
2022-10-05T10:04:22.249Z,2.13
2022-10-05T10:07:07.825Z,2.30
2022-10-05T10:09:53.394Z,2.30
2022-10-05T10:12:29.411Z,2.30
2022-10-05T10:15:14.432Z,2.13
2022-10-05T10:18:01.871Z,2.20
2022-10-05T10:20:47.881Z,2.17
2022-10-05T10:23:21.621Z,2.07
2022-10-05T10:25:58.716Z,2.27
2022-10-05T10:28:44.295Z,2.50
2022-10-05T10:31:30.278Z,2.10
2022-10-05T10:34:18.073Z,2.03
2022-10-05T10:37:03.446Z,2.40
2022-10-05T10:39:30.468Z,2.20
2022-10-05T10:42:16.369Z,1.97
2022-10-05T10:44:43.630Z,2.60
2022-10-05T10:47:10.634Z,2.20
2022-10-05T10:49:40.493Z,2.37
2022-10-05T10:52:13.263Z,2.30
2022-10-05T10:54:43.112Z,2.27
2022-10-05T10:57:12.445Z,2.23
2022-10-05T10:59:57.577Z,2.40
2022-10-05T11:02:27.753Z,2.13
2022-10-05T11:05:08.963Z,2.20
2022-10-05T11:07:44.367Z,2.27
2022-10-05T11:10:21.445Z,2.17
2022-10-05T11:13:07.349Z,1.87
2022-10-05T11:15:40.486Z,2.00
2022-10-05T11:18:07.548Z,2.13
2022-10-05T11:20:53.486Z,1.90
2022-10-05T11:23:33.167Z,2.00
2022-10-05T11:26:13.705Z,2.47
2022-10-05T11:28:59.583Z,1.80
2022-10-05T11:31:39.110Z,2.07
2022-10-05T11:34:18.548Z,1.90
2022-10-05T11:36:58.206Z,1.93
2022-10-05T11:39:43.567Z,1.90
2022-10-05T11:42:28.964Z,1.90
2022-10-05T11:45:06.176Z,1.90
2022-10-05T11:47:56.535Z,1.93
2022-10-05T11:50:38.396Z,1.67
2022-10-05T11:53:25.463Z,1.70
2022-10-05T11:55:53.511Z,1.90
2022-10-05T11:58:23.653Z,1.80
2022-10-05T12:00:55.180Z,1.77
2022-10-05T12:03:33.410Z,2.03
2022-10-05T12:06:01.585Z,1.77
2022-10-05T12:08:28.587Z,1.97
2022-10-05T12:11:03.059Z,1.77
2022-10-05T12:13:33.574Z,1.70
2022-10-05T12:16:08.418Z,1.63
2022-10-05T12:18:39.198Z,2.23
2022-10-05T12:21:10.751Z,1.90
2022-10-05T12:23:40.295Z,1.60
2022-10-05T12:26:11.057Z,1.97
2022-10-05T12:28:47.307Z,2.00
2022-10-05T12:31:21.255Z,2.20
2022-10-05T12:33:54.218Z,1.80
2022-10-05T12:36:26.327Z,1.80
2022-10-05T12:39:05.242Z,1.83
2022-10-05T12:41:32.519Z,1.90
2022-10-05T12:44:19.227Z,1.80
2022-10-05T12:46:58.436Z,2.00
2022-10-05T12:49:40.262Z,1.80
2022-10-05T12:52:13.175Z,1.80
2022-10-05T12:54:42.934Z,2.27
2022-10-05T12:57:16.179Z,2.00
2022-10-05T12:59:47.224Z,2.07
2022-10-05T13:02:25.174Z,2.00
2022-10-05T13:05:12.440Z,2.50
2022-10-05T13:07:50.872Z,2.63
2022-10-05T13:10:17.870Z,2.47
2022-10-05T13:12:47.923Z,2.53
2022-10-05T13:15:14.936Z,2.63
2022-10-05T13:18:03.249Z,2.50
2022-10-05T13:20:33.320Z,2.20
2022-10-05T13:23:19.093Z,2.10
2022-10-05T13:25:55.245Z,2.20
2022-10-05T13:28:34.473Z,1.90
2022-10-05T13:31:06.222Z,1.90
2022-10-05T13:33:42.259Z,2.20
2022-10-05T13:36:17.259Z,2.27
2022-10-05T13:38:44.274Z,2.23
2022-10-05T13:41:26.424Z,2.30
2022-10-05T13:44:19.632Z,2.30
2022-10-05T13:46:50.808Z,2.27
2022-10-05T13:49:21.895Z,2.50
2022-10-05T13:51:58.930Z,2.27
2022-10-05T13:54:27.970Z,2.37
2022-10-05T13:57:07.210Z,1.97
2022-10-05T13:59:42.810Z,2.10
2022-10-05T14:02:11.150Z,2.10
2022-10-05T14:04:57.109Z,2.10
2022-10-05T14:07:24.119Z,2.50
2022-10-05T14:09:51.346Z,2.50
2022-10-05T14:12:22.764Z,2.40
2022-10-05T14:14:53.879Z,2.60
2022-10-05T14:17:29.255Z,2.60
2022-10-05T14:20:00.734Z,2.60
2022-10-05T14:22:29.162Z,2.50
2022-10-05T14:25:08.543Z,2.80
2022-10-05T14:27:36.671Z,2.60
2022-10-05T14:30:12.815Z,2.50
2022-10-05T14:33:00.525Z,2.67
2022-10-05T14:35:31.616Z,2.40
2022-10-05T14:38:02.702Z,2.43
2022-10-05T14:40:32.539Z,2.40
2022-10-05T14:43:02.206Z,2.50
2022-10-05T14:45:33.727Z,2.60
2022-10-05T14:48:01.561Z,2.60
2022-10-05T14:50:30.716Z,2.67
2022-10-05T14:53:03.657Z,2.40
2022-10-05T14:55:30.989Z,2.23
2022-10-05T14:58:16.112Z,2.13
2022-10-05T15:00:51.086Z,2.50
2022-10-05T15:03:38.064Z,2.63
2022-10-05T15:06:06.207Z,2.50
2022-10-05T15:08:45.370Z,2.60
2022-10-05T15:11:19.100Z,2.60
2022-10-05T15:13:48.517Z,2.60
2022-10-05T15:16:19.542Z,2.60
2022-10-05T15:19:07.328Z,2.77
2022-10-05T15:21:46.583Z,2.83
2022-10-05T15:24:26.313Z,2.87
2022-10-05T15:26:55.587Z,2.67
2022-10-05T15:29:38.425Z,2.80
2022-10-05T15:32:22.259Z,2.77
2022-10-05T15:34:59.746Z,2.47
2022-10-05T15:37:32.974Z,2.90
2022-10-05T15:40:01.923Z,2.53
2022-10-05T15:42:41.512Z,2.90
2022-10-05T15:45:10.665Z,3.03
2022-10-05T15:47:50.342Z,2.80
2022-10-05T15:50:23.284Z,2.90
2022-10-05T15:52:58.899Z,2.53
2022-10-05T15:55:32.073Z,2.93
2022-10-05T15:58:29.961Z,3.30
2022-10-05T16:01:10.576Z,2.70
2022-10-05T16:03:46.289Z,3.13
2022-10-05T16:06:36.327Z,3.20
2022-10-05T16:09:07.582Z,3.00
2022-10-05T16:11:38.334Z,3.20
2022-10-05T16:14:20.700Z,3.03
2022-10-05T16:16:53.663Z,3.00
2022-10-05T16:19:30.243Z,2.93
2022-10-05T16:22:03.546Z,2.83
2022-10-05T16:24:49.703Z,3.10
2022-10-05T16:27:25.361Z,2.93
2022-10-05T16:29:57.942Z,3.03
2022-10-05T16:32:30.103Z,3.57
2022-10-05T16:34:57.155Z,3.50
2022-10-05T16:37:24.284Z,3.30
2022-10-05T16:39:59.338Z,3.00
2022-10-05T16:42:38.420Z,3.17
2022-10-05T16:45:24.082Z,3.13
2022-10-05T16:47:51.164Z,3.30
2022-10-05T16:50:23.817Z,3.10
2022-10-05T16:52:59.557Z,3.10
2022-10-05T16:55:35.909Z,3.60
2022-10-05T16:58:05.549Z,3.53
2022-10-05T17:00:32.576Z,3.70
2022-10-05T17:03:21.874Z,3.90
2022-10-05T17:05:52.957Z,3.40
2022-10-05T17:08:36.578Z,3.33
2022-10-05T17:11:22.660Z,3.60
2022-10-05T17:14:05.027Z,3.57
2022-10-05T17:16:41.814Z,3.40
2022-10-05T17:19:27.368Z,3.67
2022-10-05T17:22:00.348Z,3.90
2022-10-05T17:24:34.290Z,3.80
2022-10-05T17:27:20.166Z,3.90
2022-10-05T17:29:52.252Z,3.83
2022-10-05T17:32:19.280Z,3.63
2022-10-05T17:34:58.644Z,3.73
2022-10-05T17:37:29.414Z,3.60
2022-10-05T17:39:57.620Z,3.90
2022-10-05T17:42:28.743Z,3.53
2022-10-05T17:44:58.729Z,3.70
2022-10-05T17:47:47.539Z,4.03
2022-10-05T17:50:33.638Z,4.07
2022-10-05T17:53:38.158Z,4.00
2022-10-05T17:56:05.574Z,4.27
2022-10-05T17:58:32.575Z,3.83
2022-10-05T18:01:00.638Z,3.30
2022-10-05T18:03:40.862Z,3.83
2022-10-05T18:06:26.288Z,3.50
2022-10-05T18:09:12.490Z,3.90
2022-10-05T18:11:41.427Z,3.87
2022-10-05T18:14:17.868Z,3.40
2022-10-05T18:16:57.267Z,3.50
2022-10-05T18:19:24.474Z,3.90
2022-10-05T18:22:21.134Z,3.77
2022-10-05T18:24:49.780Z,3.90
2022-10-05T18:27:16.869Z,3.87
2022-10-05T18:30:02.681Z,3.90
2022-10-05T18:32:32.830Z,4.00
2022-10-05T18:35:07.894Z,3.57
2022-10-05T18:37:54.359Z,3.60
2022-10-05T18:40:25.426Z,3.47
2022-10-05T18:43:00.764Z,3.50
2022-10-05T18:45:37.915Z,3.70
2022-10-05T18:48:24.197Z,4.00
2022-10-05T18:51:00.048Z,3.77
2022-10-05T18:53:29.984Z,3.70
2022-10-05T18:56:02.177Z,3.77
2022-10-05T18:58:29.669Z,3.87
2022-10-05T19:01:02.025Z,3.50
2022-10-05T19:04:04.833Z,3.50
2022-10-05T19:06:36.167Z,3.80
2022-10-05T19:09:09.137Z,3.50
2022-10-05T19:11:48.127Z,3.50
2022-10-05T19:14:28.788Z,3.80
2022-10-05T19:17:03.164Z,3.60
2022-10-05T19:19:49.132Z,3.60
2022-10-05T19:22:25.379Z,3.37
2022-10-05T19:25:01.737Z,3.70
2022-10-05T19:27:48.345Z,3.90
2022-10-05T19:30:23.568Z,3.90
2022-10-05T19:33:09.509Z,5.13
2022-10-05T19:35:39.643Z,4.07
2022-10-05T19:38:15.326Z,3.97
2022-10-05T19:40:42.811Z,3.70
2022-10-05T19:43:09.800Z,3.80
2022-10-05T19:45:43.075Z,3.90
2022-10-05T19:48:22.284Z,3.60
2022-10-05T19:50:56.241Z,3.50
2022-10-05T19:53:26.151Z,3.47
2022-10-05T19:55:55.402Z,3.97
2022-10-05T19:58:27.289Z,3.50
2022-10-05T20:00:58.754Z,3.50
2022-10-05T20:03:27.585Z,3.40
2022-10-05T20:05:56.211Z,3.73
2022-10-05T20:08:26.834Z,3.23
2022-10-05T20:11:12.724Z,3.43
2022-10-05T20:13:41.756Z,3.70
2022-10-05T20:16:36.259Z,3.40
2022-10-05T20:19:23.618Z,3.20
2022-10-05T20:21:51.920Z,3.30
2022-10-05T20:24:25.742Z,3.57
2022-10-05T20:27:06.345Z,3.17
2022-10-05T20:29:33.514Z,3.60
2022-10-05T20:32:01.060Z,3.03
2022-10-05T20:34:28.119Z,3.10
2022-10-05T20:36:55.219Z,3.20
2022-10-05T20:39:22.423Z,3.77
2022-10-05T20:41:49.448Z,3.40
2022-10-05T20:44:16.530Z,3.53
2022-10-05T20:46:43.683Z,3.47
2022-10-05T20:49:10.938Z,3.37
2022-10-05T20:51:38.684Z,3.17
2022-10-05T20:54:05.753Z,3.50
2022-10-05T20:56:33.191Z,3.33
2022-10-05T20:59:00.297Z,3.33
2022-10-05T21:01:28.727Z,3.43
2022-10-05T21:03:55.900Z,3.53
2022-10-05T21:06:26.228Z,3.60
2022-10-05T21:08:54.179Z,3.37
2022-10-05T21:11:21.574Z,3.47
2022-10-05T21:13:49.339Z,3.27
2022-10-05T21:16:18.454Z,3.40
2022-10-05T21:18:49.571Z,3.30
2022-10-05T21:21:19.663Z,3.10
2022-10-05T21:23:47.456Z,3.70
2022-10-05T21:26:15.179Z,3.03
2022-10-05T21:28:42.471Z,3.37
2022-10-05T21:31:09.954Z,3.40
2022-10-05T21:33:37.097Z,3.63
2022-10-05T21:36:04.400Z,3.37
2022-10-05T21:38:31.572Z,3.40
2022-10-05T21:40:58.680Z,3.20
2022-10-05T21:43:26.225Z,3.40
2022-10-05T21:45:54.709Z,3.20
2022-10-05T21:48:22.504Z,3.50
2022-10-05T21:50:49.677Z,3.20
2022-10-05T21:53:17.763Z,3.17
2022-10-05T21:55:46.635Z,2.80
2022-10-05T21:58:14.205Z,3.10
2022-10-05T22:00:41.290Z,3.30
2022-10-05T22:03:08.844Z,3.43
2022-10-05T22:05:36.503Z,3.20
2022-10-05T22:08:04.304Z,3.50
2022-10-05T22:10:31.800Z,3.30
2022-10-05T22:13:02.311Z,3.30
2022-10-05T22:15:30.228Z,3.00
2022-10-05T22:18:00.146Z,3.07
2022-10-05T22:20:27.537Z,3.00
2022-10-05T22:22:54.875Z,2.73
2022-10-05T22:25:22.308Z,3.20
2022-10-05T22:27:49.945Z,2.80
2022-10-05T22:30:17.059Z,2.60
2022-10-05T22:32:44.731Z,2.87
2022-10-05T22:35:12.057Z,2.70
2022-10-05T22:37:39.227Z,2.53
2022-10-05T22:40:06.927Z,2.90
2022-10-05T22:42:34.035Z,2.90
2022-10-05T22:45:01.138Z,2.70
2022-10-05T22:47:28.240Z,2.40
2022-10-05T22:49:55.325Z,2.60
2022-10-05T22:52:22.421Z,2.13
2022-10-05T22:54:49.447Z,2.67
2022-10-05T22:57:16.516Z,2.60
2022-10-05T22:59:43.555Z,2.43
2022-10-05T23:02:12.399Z,2.10
2022-10-05T23:04:39.473Z,2.10
2022-10-05T23:07:06.696Z,2.10
2022-10-05T23:09:33.727Z,2.23
2022-10-05T23:12:01.114Z,1.83
2022-10-05T23:14:30.719Z,1.90
2022-10-05T23:16:57.836Z,2.30
2022-10-05T23:19:24.942Z,2.30
2022-10-05T23:21:52.069Z,2.20
2022-10-05T23:24:19.104Z,2.00
2022-10-05T23:26:46.155Z,2.00
2022-10-05T23:29:13.207Z,2.10
2022-10-05T23:31:40.280Z,2.10
2022-10-05T23:34:07.310Z,2.20
2022-10-05T23:36:34.470Z,2.17
2022-10-05T23:39:01.547Z,1.80
2022-10-05T23:41:28.610Z,2.07
2022-10-05T23:43:55.791Z,2.20
2022-10-05T23:46:23.191Z,2.10
2022-10-05T23:48:50.386Z,2.00
2022-10-05T23:51:17.511Z,2.00
2022-10-05T23:53:44.555Z,1.93
2022-10-05T23:56:11.945Z,2.03
2022-10-05T23:58:38.964Z,2.50
